Weather observations for the past three days for
Sisseton, Sisseton Municipal Airport
Imperial (Metric)
Date Time (cdt) Wind (mph) Vis. (mi.) Weather Sky Cond. Temperature (ºF) Relative Humidity Wind Chill (°F) Heat Index (°F) Pressure Precipitation (in)
Air Dwpt 6 hour altimeter (in) sea level (mb) 1 hr 3 hr 6 hr
Max. Min.
09 17:56 N 14 G 24 0.00 NULL NULL 59 23 25% 29.93 1013.6
09 16:56 N 17 G 26 0.00 NULL NULL 60.1 24.1 25% 29.92 1013.2
09 15:56 N 20 G 30 0.00 NULL NULL 59 24.1 26% 29.92 1013.2
09 14:56 NW 20 G 32 0.00 NULL NULL 59 26.1 28% 29.92 1013.0
09 13:56 N 24 G 30 0.00 Breezy NULL 57 27 32% 29.92 1013.0
09 12:56 NW 17 G 32 0.00 NULL NULL 54 28 55 42.1 37% 29.92 1013.1
09 11:56 N 22 G 29 0.00 Breezy NULL 53.1 28.9 40% 29.91 1012.7
09 10:56 N 16 0.00 NULL NULL 52 30 43% 29.89 1012.3
09 09:56 N 20 0.00 NULL NULL 48.9 30.9 50% 43 29.87 1011.9
09 08:56 N 16 0.00 NULL NULL 46.9 35.1 63% 41 29.84 1010.5
09 07:56 NW 15 0.00 NULL NULL 44.1 41 89% 38 29.81 1009.4
09 06:56 NW 13 0.00 NULL NULL 42.1 39.9 51.1 41 92% 36 29.78 1008.1 0.04
09 05:56 NW 13 0.00 NULL NULL 43 41 93% 37 29.75 1007.2
09 04:56 NW 16 0.00 NULL NULL 46 44.1 93% 40 29.73 1006.2
09 03:56 NW 10 0.00 NULL NULL 46 45 96% 42 29.69 1004.8 0.04
09 02:56 SW 5 0.00 NULL NULL 46.9 45 93% 45 29.65 1003.5 0.03
09 01:56 NW 12 0.00 NULL NULL 48 45 89% 44 29.69 1004.8 0.01
09 00:56 N 23 G 30 0.00 Breezy NULL 52 44.1 66.9 48.9 75% 29.65 1003.4
08 23:56 NW 8 0.00 NULL NULL 54 36 51% 29.63 1002.6
08 22:56 SW 8 0.00 NULL NULL 53.1 34 48% 29.61 1001.9
08 21:56 SW 7 0.00 NULL NULL 48.9 34 56% 46 29.62 1002.7
08 20:56 W 6 0.00 NULL NULL 57.9 30.9 36% 29.63 1002.9
08 19:56 NW 9 0.00 NULL NULL 64 32 30% 29.64 1003.3
08 18:56 N 20 G 26 0.00 NULL NULL 66.9 30 72 66.9 25% 29.65 1003.9
08 17:56 N 26 G 37 0.00 Windy NULL 69.1 30 23% 29.66 1003.9
08 16:56 NW 23 G 37 0.00 Breezy NULL 70 28.9 22% 29.65 1003.8
08 15:56 NW 30 G 39 0.00 Windy NULL 71.1 28 20% 29.64 1003.6
08 14:56 NW 23 G 36 0.00 Breezy NULL 71.1 26.1 19% 29.64 1003.7
08 13:56 NW 30 G 41 0.00 Windy NULL 69.1 28.9 22% 29.64 1003.7
08 12:56 W 20 G 35 0.00 NULL NULL 69.1 28 70 45 22% 29.66 1004.2
08 11:56 NW 20 G 29 0.00 NULL NULL 69.1 24.1 18% 29.68 1004.6
08 10:56 W 15 G 22 0.00 NULL NULL 64.9 27 24% 29.69 1005.0
08 09:56 W 12 0.00 NULL NULL 62.1 28 28% 29.7 1005.6
08 08:56 W 7 0.00 NULL NULL 59 27 29% 29.72 1005.9
08 07:56 NW 3 0.00 NULL NULL 54 26.1 34% 29.73 1006.5
08 06:56 Calm 0.00 NULL NULL 44.1 27 48.9 35.1 51% 29.73 1006.8
08 05:56 W 7 0.00 NULL NULL 41 28.9 62% 37 29.74 1007.0
08 04:56 N 3 0.00 NULL NULL 41 27 57% 29.74 1007.0
08 03:56 NW 3 0.00 NULL NULL 36 26.1 67% 29.74 1007.4
08 02:56 NW 7 0.00 NULL NULL 36 25 64% 31 29.75 1007.7
08 01:56 N 5 0.00 NULL NULL 36 27 70% 33 29.75 1008.0
08 00:56 SW 3 0.00 NULL NULL 39.9 27 62.1 39 60% 29.76 1007.9
07 23:56 SW 5 0.00 NULL NULL 41 28 60% 38 29.76 1008.2
07 22:56 SW 3 0.00 NULL NULL 44.1 27 51% 29.77 1008.4
07 21:56 SW 7 0.00 NULL NULL 48 25 41% 45 29.78 1008.7
07 20:56 SW 7 0.00 NULL NULL 54 24.1 31% 29.77 1008.2
07 19:56 W 8 0.00 NULL NULL 57.9 24.1 27% 29.76 1008.2
07 18:56 W 15 G 22 0.00 NULL NULL 62.1 23 63 57 22% 29.76 1008.6
07 17:56 W 16 0.00 NULL NULL 62.1 21 21% 29.77 1009.0
07 16:56 W 16 G 26 0.00 NULL NULL 62.1 21.9 21% 29.78 1009.3
07 15:56 W 13 G 22 0.00 NULL NULL 60.1 23 24% 29.8 1009.8
07 14:56 NW 9 G 20 0.00 NULL NULL 60.1 21.9 23% 29.82 1010.5
07 13:56 W 8 G 23 0.00 NULL NULL 57 19.9 24% 29.83 1010.9
07 12:56 W 14 G 21 0.00 NULL NULL 57 21 57.9 28 25% 29.84 1011.3
07 11:56 N 9 0.00 NULL NULL 55 23 29% 29.86 1012.2
07 10:56 NW 8 0.00 NULL NULL 55 23 29% 29.87 1012.4
07 09:56 Vrbl 5 0.00 NULL NULL 50 24.1 36% 49 29.88 1012.5
07 08:56 S 6 0.00 NULL NULL 46 27 47% 44 29.88 1012.7
07 07:56 S 6 0.00 NULL NULL 39 27 62% 35 29.88 1012.7
07 06:56 S 3 0.00 NULL NULL 27 21.9 32 25 81% 29.87 1012.9
07 05:56 SW 6 0.00 NULL NULL 26.1 23 88% 20 29.88 1013.1
07 04:56 S 5 0.00 NULL NULL 27 23 85% 22 29.88 1013.3
07 03:56 S 6 0.00 NULL NULL 30 23 75% 25 29.88 1013.3
07 02:56 S 5 0.00 NULL NULL 30 21.9 72% 26 29.89 1013.6
07 01:56 S 8 0.00 NULL NULL 30 23 75% 23 29.91 1014.1
07 00:56 S 5 0.00 NULL NULL 28 21.9 46.9 27 78% 24 29.92 1014.6
06 23:56 S 6 0.00 NULL NULL 28.9 21.9 75% 23 29.93 1014.9
06 22:56 S 7 0.00 NULL NULL 33.1 24.1 70% 28 29.95 1015.5
06 21:56 SE 3 0.00 NULL NULL 36 21.9 57% 29.96 1015.9
06 20:56 NE 6 0.00 NULL NULL 37.9 21.9 52% 34 29.95 1015.7
06 19:56 N 10 0.00 NULL NULL 44.1 21.9 41% 39 29.95 1015.3
06 18:56 NW 13 0.00 NULL NULL 46.9 21.9 48.9 43 37% 42 29.95 1015.4
Date Time (cdt) Wind (mph) Vis. (mi.) Weather Sky Cond. Air Dwpt Max. Min. Relative Humidity Wind Chill (°F) Heat Index (°F) altimeter (in) sea level (mb) 1 hr 3 hr 6 hr
6 hour
Temperature (ºF) Pressure Precipitation (in)